sensor_id;sensor_type;location;lat;lon;timestamp;P1;durP1;ratioP1;P2;durP2;ratioP2
12776;SDS011;6452;41.572;23.732;2023-08-21T00:01:16;4.05;;;3.83;;
12776;SDS011;6452;41.572;23.732;2023-08-21T00:03:42;3.85;;;3.58;;
12776;SDS011;6452;41.572;23.732;2023-08-21T00:06:10;5.82;;;3.85;;
12776;SDS011;6452;41.572;23.732;2023-08-21T00:08:35;5.95;;;3.55;;
12776;SDS011;6452;41.572;23.732;2023-08-21T00:11:01;4.75;;;4.18;;
12776;SDS011;6452;41.572;23.732;2023-08-21T00:13:27;4.40;;;3.28;;
12776;SDS011;6452;41.572;23.732;2023-08-21T00:15:53;3.60;;;3.28;;
12776;SDS011;6452;41.572;23.732;2023-08-21T00:18:21;3.97;;;3.50;;
12776;SDS011;6452;41.572;23.732;2023-08-21T00:20:46;3.78;;;3.58;;
12776;SDS011;6452;41.572;23.732;2023-08-21T00:23:12;3.65;;;3.45;;
12776;SDS011;6452;41.572;23.732;2023-08-21T00:25:39;3.75;;;3.45;;
12776;SDS011;6452;41.572;23.732;2023-08-21T00:28:05;3.60;;;3.20;;
12776;SDS011;6452;41.572;23.732;2023-08-21T00:30:31;4.00;;;3.60;;
12776;SDS011;6452;41.572;23.732;2023-08-21T00:32:57;3.20;;;3.05;;
12776;SDS011;6452;41.572;23.732;2023-08-21T00:35:23;4.10;;;3.80;;
12776;SDS011;6452;41.572;23.732;2023-08-21T00:37:49;3.80;;;3.50;;
12776;SDS011;6452;41.572;23.732;2023-08-21T00:40:16;4.00;;;3.70;;
12776;SDS011;6452;41.572;23.732;2023-08-21T00:42:42;4.13;;;3.40;;
12776;SDS011;6452;41.572;23.732;2023-08-21T00:45:08;3.42;;;3.22;;
12776;SDS011;6452;41.572;23.732;2023-08-21T00:47:35;3.97;;;3.67;;
12776;SDS011;6452;41.572;23.732;2023-08-21T00:50:01;5.53;;;3.78;;
12776;SDS011;6452;41.572;23.732;2023-08-21T00:52:27;3.38;;;3.22;;
12776;SDS011;6452;41.572;23.732;2023-08-21T00:54:53;4.30;;;3.70;;
12776;SDS011;6452;41.572;23.732;2023-08-21T00:57:19;3.65;;;3.45;;
12776;SDS011;6452;41.572;23.732;2023-08-21T00:59:45;3.92;;;3.53;;
12776;SDS011;6452;41.572;23.732;2023-08-21T01:02:12;3.80;;;3.50;;
12776;SDS011;6452;41.572;23.732;2023-08-21T01:04:38;3.40;;;3.20;;
12776;SDS011;6452;41.572;23.732;2023-08-21T01:07:05;5.40;;;3.53;;
12776;SDS011;6452;41.572;23.732;2023-08-21T01:16:52;4.00;;;3.70;;
12776;SDS011;6452;41.572;23.732;2023-08-21T01:19:31;3.75;;;3.55;;
12776;SDS011;6452;41.572;23.732;2023-08-21T01:22:04;3.85;;;3.55;;
12776;SDS011;6452;41.572;23.732;2023-08-21T01:24:30;4.03;;;3.70;;
12776;SDS011;6452;41.572;23.732;2023-08-21T01:26:56;4.00;;;3.63;;
12776;SDS011;6452;41.572;23.732;2023-08-21T01:29:22;3.50;;;3.30;;
12776;SDS011;6452;41.572;23.732;2023-08-21T01:31:50;3.78;;;3.47;;
12776;SDS011;6452;41.572;23.732;2023-08-21T01:34:17;4.80;;;3.83;;
12776;SDS011;6452;41.572;23.732;2023-08-21T01:36:43;3.70;;;3.50;;
12776;SDS011;6452;41.572;23.732;2023-08-21T01:39:08;3.67;;;3.47;;
12776;SDS011;6452;41.572;23.732;2023-08-21T01:41:34;3.47;;;3.20;;
12776;SDS011;6452;41.572;23.732;2023-08-21T01:44:00;3.67;;;3.47;;
12776;SDS011;6452;41.572;23.732;2023-08-21T01:46:27;3.97;;;3.65;;
12776;SDS011;6452;41.572;23.732;2023-08-21T01:48:53;3.78;;;3.47;;
12776;SDS011;6452;41.572;23.732;2023-08-21T01:51:19;3.88;;;3.58;;
12776;SDS011;6452;41.572;23.732;2023-08-21T01:53:46;4.10;;;3.70;;
12776;SDS011;6452;41.572;23.732;2023-08-21T01:56:12;4.47;;;3.90;;
12776;SDS011;6452;41.572;23.732;2023-08-21T01:58:38;3.80;;;3.58;;
12776;SDS011;6452;41.572;23.732;2023-08-21T02:01:04;3.42;;;3.20;;
12776;SDS011;6452;41.572;23.732;2023-08-21T02:03:30;3.63;;;3.42;;
12776;SDS011;6452;41.572;23.732;2023-08-21T02:05:56;4.13;;;3.70;;
12776;SDS011;6452;41.572;23.732;2023-08-21T02:08:25;3.78;;;3.47;;
12776;SDS011;6452;41.572;23.732;2023-08-21T02:10:51;5.43;;;3.38;;
12776;SDS011;6452;41.572;23.732;2023-08-21T02:13:17;4.13;;;3.75;;
12776;SDS011;6452;41.572;23.732;2023-08-21T02:15:43;4.07;;;3.78;;
12776;SDS011;6452;41.572;23.732;2023-08-21T02:18:09;3.80;;;3.60;;
12776;SDS011;6452;41.572;23.732;2023-08-21T02:20:35;4.40;;;4.00;;
12776;SDS011;6452;41.572;23.732;2023-08-21T02:23:01;4.45;;;3.30;;
12776;SDS011;6452;41.572;23.732;2023-08-21T02:25:29;3.80;;;3.60;;
12776;SDS011;6452;41.572;23.732;2023-08-21T02:27:54;4.05;;;3.85;;
12776;SDS011;6452;41.572;23.732;2023-08-21T02:30:20;4.35;;;3.53;;
12776;SDS011;6452;41.572;23.732;2023-08-21T02:32:51;4.05;;;3.63;;
12776;SDS011;6452;41.572;23.732;2023-08-21T02:35:18;3.97;;;3.78;;
12776;SDS011;6452;41.572;23.732;2023-08-21T02:37:43;3.67;;;3.47;;
12776;SDS011;6452;41.572;23.732;2023-08-21T02:40:09;3.60;;;3.40;;
12776;SDS011;6452;41.572;23.732;2023-08-21T02:42:35;4.00;;;3.70;;
12776;SDS011;6452;41.572;23.732;2023-08-21T02:45:02;5.55;;;3.45;;
12776;SDS011;6452;41.572;23.732;2023-08-21T02:47:29;5.45;;;3.90;;
12776;SDS011;6452;41.572;23.732;2023-08-21T02:49:55;3.80;;;3.55;;
12776;SDS011;6452;41.572;23.732;2023-08-21T02:52:21;3.80;;;3.47;;
12776;SDS011;6452;41.572;23.732;2023-08-21T02:54:47;3.83;;;3.53;;
12776;SDS011;6452;41.572;23.732;2023-08-21T02:57:13;3.38;;;3.17;;
12776;SDS011;6452;41.572;23.732;2023-08-21T02:59:39;3.60;;;3.40;;
12776;SDS011;6452;41.572;23.732;2023-08-21T03:02:05;3.90;;;3.58;;
12776;SDS011;6452;41.572;23.732;2023-08-21T03:04:32;3.42;;;3.22;;
12776;SDS011;6452;41.572;23.732;2023-08-21T03:06:58;4.03;;;3.63;;
12776;SDS011;6452;41.572;23.732;2023-08-21T03:09:24;4.72;;;4.25;;
12776;SDS011;6452;41.572;23.732;2023-08-21T03:11:50;4.25;;;3.85;;
12776;SDS011;6452;41.572;23.732;2023-08-21T03:14:16;4.30;;;4.00;;
12776;SDS011;6452;41.572;23.732;2023-08-21T03:16:42;4.32;;;4.03;;
12776;SDS011;6452;41.572;23.732;2023-08-21T03:19:08;3.83;;;3.58;;
12776;SDS011;6452;41.572;23.732;2023-08-21T03:21:34;4.32;;;3.78;;
12776;SDS011;6452;41.572;23.732;2023-08-21T03:24:00;3.50;;;3.30;;
12776;SDS011;6452;41.572;23.732;2023-08-21T03:26:26;6.50;;;3.22;;
12776;SDS011;6452;41.572;23.732;2023-08-21T03:28:52;3.95;;;3.65;;
12776;SDS011;6452;41.572;23.732;2023-08-21T03:31:18;3.97;;;3.30;;
12776;SDS011;6452;41.572;23.732;2023-08-21T03:33:44;4.07;;;3.40;;
12776;SDS011;6452;41.572;23.732;2023-08-21T03:36:12;3.70;;;3.40;;
12776;SDS011;6452;41.572;23.732;2023-08-21T03:38:38;4.90;;;3.63;;
12776;SDS011;6452;41.572;23.732;2023-08-21T03:41:04;4.22;;;3.92;;
12776;SDS011;6452;41.572;23.732;2023-08-21T03:43:31;5.20;;;3.60;;
12776;SDS011;6452;41.572;23.732;2023-08-21T03:45:57;3.70;;;3.50;;
12776;SDS011;6452;41.572;23.732;2023-08-21T03:48:23;4.00;;;3.60;;
12776;SDS011;6452;41.572;23.732;2023-08-21T03:50:50;3.45;;;3.25;;
12776;SDS011;6452;41.572;23.732;2023-08-21T03:53:15;3.60;;;3.38;;
12776;SDS011;6452;41.572;23.732;2023-08-21T03:55:41;4.22;;;3.92;;
12776;SDS011;6452;41.572;23.732;2023-08-21T03:58:07;3.95;;;3.65;;
12776;SDS011;6452;41.572;23.732;2023-08-21T04:00:33;4.43;;;4.00;;
12776;SDS011;6452;41.572;23.732;2023-08-21T04:02:59;3.90;;;3.60;;
12776;SDS011;6452;41.572;23.732;2023-08-21T04:05:25;4.32;;;4.00;;
12776;SDS011;6452;41.572;23.732;2023-08-21T04:07:51;4.00;;;3.80;;
12776;SDS011;6452;41.572;23.732;2023-08-21T04:10:17;4.22;;;3.83;;
12776;SDS011;6452;41.572;23.732;2023-08-21T04:12:43;4.45;;;4.05;;
12776;SDS011;6452;41.572;23.732;2023-08-21T04:15:09;3.85;;;3.55;;
12776;SDS011;6452;41.572;23.732;2023-08-21T04:17:36;3.95;;;3.60;;
12776;SDS011;6452;41.572;23.732;2023-08-21T04:20:02;4.18;;;3.63;;
12776;SDS011;6452;41.572;23.732;2023-08-21T04:22:28;3.78;;;3.58;;
12776;SDS011;6452;41.572;23.732;2023-08-21T04:24:54;3.55;;;3.33;;
12776;SDS011;6452;41.572;23.732;2023-08-21T04:27:20;6.03;;;3.33;;
12776;SDS011;6452;41.572;23.732;2023-08-21T04:29:47;6.05;;;3.90;;
12776;SDS011;6452;41.572;23.732;2023-08-21T04:32:13;3.92;;;3.65;;
12776;SDS011;6452;41.572;23.732;2023-08-21T04:34:39;3.80;;;3.60;;
12776;SDS011;6452;41.572;23.732;2023-08-21T04:37:05;4.80;;;3.65;;
12776;SDS011;6452;41.572;23.732;2023-08-21T04:39:31;6.15;;;3.80;;
12776;SDS011;6452;41.572;23.732;2023-08-21T04:41:57;4.57;;;3.70;;
12776;SDS011;6452;41.572;23.732;2023-08-21T04:44:23;4.28;;;3.90;;
12776;SDS011;6452;41.572;23.732;2023-08-21T04:46:50;4.03;;;3.72;;
12776;SDS011;6452;41.572;23.732;2023-08-21T04:49:16;4.20;;;3.90;;
12776;SDS011;6452;41.572;23.732;2023-08-21T04:51:42;3.92;;;3.50;;
12776;SDS011;6452;41.572;23.732;2023-08-21T04:54:08;4.20;;;3.90;;
12776;SDS011;6452;41.572;23.732;2023-08-21T04:56:34;3.85;;;3.55;;
12776;SDS011;6452;41.572;23.732;2023-08-21T04:59:01;3.95;;;3.65;;
12776;SDS011;6452;41.572;23.732;2023-08-21T05:01:27;3.97;;;3.47;;
12776;SDS011;6452;41.572;23.732;2023-08-21T05:03:53;3.90;;;3.55;;
12776;SDS011;6452;41.572;23.732;2023-08-21T05:06:20;6.60;;;3.50;;
12776;SDS011;6452;41.572;23.732;2023-08-21T05:08:45;3.38;;;3.17;;
12776;SDS011;6452;41.572;23.732;2023-08-21T05:11:11;4.05;;;3.75;;
12776;SDS011;6452;41.572;23.732;2023-08-21T05:13:37;3.67;;;3.38;;
12776;SDS011;6452;41.572;23.732;2023-08-21T05:16:03;3.88;;;3.58;;
12776;SDS011;6452;41.572;23.732;2023-08-21T05:18:29;3.85;;;3.55;;
12776;SDS011;6452;41.572;23.732;2023-08-21T05:20:56;4.50;;;3.67;;
12776;SDS011;6452;41.572;23.732;2023-08-21T05:23:22;4.80;;;3.75;;
12776;SDS011;6452;41.572;23.732;2023-08-21T05:25:48;3.22;;;3.03;;
12776;SDS011;6452;41.572;23.732;2023-08-21T05:28:14;3.50;;;3.30;;
12776;SDS011;6452;41.572;23.732;2023-08-21T05:30:40;3.95;;;3.63;;
12776;SDS011;6452;41.572;23.732;2023-08-21T05:33:06;3.72;;;3.47;;
12776;SDS011;6452;41.572;23.732;2023-08-21T05:35:35;3.72;;;3.45;;
12776;SDS011;6452;41.572;23.732;2023-08-21T05:38:02;5.35;;;3.30;;
12776;SDS011;6452;41.572;23.732;2023-08-21T05:40:28;3.45;;;3.22;;
12776;SDS011;6452;41.572;23.732;2023-08-21T05:42:55;5.43;;;3.85;;
12776;SDS011;6452;41.572;23.732;2023-08-21T05:45:20;4.07;;;3.70;;
12776;SDS011;6452;41.572;23.732;2023-08-21T05:47:46;3.78;;;3.50;;
12776;SDS011;6452;41.572;23.732;2023-08-21T05:50:13;4.15;;;3.80;;
12776;SDS011;6452;41.572;23.732;2023-08-21T05:52:40;3.75;;;3.50;;
12776;SDS011;6452;41.572;23.732;2023-08-21T05:55:06;3.22;;;3.03;;
12776;SDS011;6452;41.572;23.732;2023-08-21T05:57:32;3.95;;;3.40;;
12776;SDS011;6452;41.572;23.732;2023-08-21T05:59:58;3.70;;;3.50;;
12776;SDS011;6452;41.572;23.732;2023-08-21T06:02:24;3.83;;;3.55;;
12776;SDS011;6452;41.572;23.732;2023-08-21T06:04:50;3.30;;;3.10;;
12776;SDS011;6452;41.572;23.732;2023-08-21T06:07:17;3.13;;;2.92;;
12776;SDS011;6452;41.572;23.732;2023-08-21T06:09:43;2.95;;;2.85;;
12776;SDS011;6452;41.572;23.732;2023-08-21T06:12:09;3.45;;;3.15;;
12776;SDS011;6452;41.572;23.732;2023-08-21T06:14:35;3.50;;;3.30;;
12776;SDS011;6452;41.572;23.732;2023-08-21T06:17:02;3.33;;;3.20;;
12776;SDS011;6452;41.572;23.732;2023-08-21T06:19:29;3.50;;;3.30;;
12776;SDS011;6452;41.572;23.732;2023-08-21T06:21:55;3.97;;;3.58;;
12776;SDS011;6452;41.572;23.732;2023-08-21T06:24:21;3.42;;;3.13;;
12776;SDS011;6452;41.572;23.732;2023-08-21T06:26:46;3.20;;;3.00;;
12776;SDS011;6452;41.572;23.732;2023-08-21T06:29:13;4.72;;;3.15;;
12776;SDS011;6452;41.572;23.732;2023-08-21T06:31:39;3.50;;;3.30;;
12776;SDS011;6452;41.572;23.732;2023-08-21T06:34:05;3.08;;;2.88;;
12776;SDS011;6452;41.572;23.732;2023-08-21T06:36:31;3.03;;;2.90;;
12776;SDS011;6452;41.572;23.732;2023-08-21T06:38:56;3.35;;;2.88;;
12776;SDS011;6452;41.572;23.732;2023-08-21T06:41:22;3.10;;;2.90;;
12776;SDS011;6452;41.572;23.732;2023-08-21T06:43:50;2.67;;;2.58;;
12776;SDS011;6452;41.572;23.732;2023-08-21T06:46:16;3.63;;;3.33;;
12776;SDS011;6452;41.572;23.732;2023-08-21T06:48:42;3.20;;;2.92;;
12776;SDS011;6452;41.572;23.732;2023-08-21T06:51:09;2.92;;;2.38;;
12776;SDS011;6452;41.572;23.732;2023-08-21T06:53:35;3.90;;;2.80;;
12776;SDS011;6452;41.572;23.732;2023-08-21T06:56:01;2.47;;;2.38;;
12776;SDS011;6452;41.572;23.732;2023-08-21T06:58:27;2.90;;;2.70;;
12776;SDS011;6452;41.572;23.732;2023-08-21T07:00:53;2.40;;;2.30;;
12776;SDS011;6452;41.572;23.732;2023-08-21T07:03:20;3.60;;;2.90;;
12776;SDS011;6452;41.572;23.732;2023-08-21T07:05:46;2.70;;;2.50;;
12776;SDS011;6452;41.572;23.732;2023-08-21T07:08:13;2.80;;;2.70;;
12776;SDS011;6452;41.572;23.732;2023-08-21T07:10:39;2.63;;;2.50;;
12776;SDS011;6452;41.572;23.732;2023-08-21T07:13:05;2.70;;;2.50;;
12776;SDS011;6452;41.572;23.732;2023-08-21T07:15:32;2.67;;;2.47;;
12776;SDS011;6452;41.572;23.732;2023-08-21T07:17:58;2.85;;;2.60;;
12776;SDS011;6452;41.572;23.732;2023-08-21T07:20:24;3.45;;;2.70;;
12776;SDS011;6452;41.572;23.732;2023-08-21T07:22:50;4.72;;;2.60;;
12776;SDS011;6452;41.572;23.732;2023-08-21T07:25:16;2.65;;;2.55;;
12776;SDS011;6452;41.572;23.732;2023-08-21T07:27:42;2.85;;;2.60;;
12776;SDS011;6452;41.572;23.732;2023-08-21T07:30:09;3.15;;;2.85;;
12776;SDS011;6452;41.572;23.732;2023-08-21T07:32:36;2.50;;;2.30;;
12776;SDS011;6452;41.572;23.732;2023-08-21T07:35:02;2.42;;;2.33;;
12776;SDS011;6452;41.572;23.732;2023-08-21T07:37:29;2.38;;;2.28;;
12776;SDS011;6452;41.572;23.732;2023-08-21T07:39:56;2.78;;;2.28;;
12776;SDS011;6452;41.572;23.732;2023-08-21T07:42:23;3.88;;;2.65;;
12776;SDS011;6452;41.572;23.732;2023-08-21T07:44:49;2.55;;;2.40;;
12776;SDS011;6452;41.572;23.732;2023-08-21T07:47:15;2.42;;;2.13;;
12776;SDS011;6452;41.572;23.732;2023-08-21T07:49:40;2.58;;;2.47;;
12776;SDS011;6452;41.572;23.732;2023-08-21T07:52:06;6.75;;;2.78;;
12776;SDS011;6452;41.572;23.732;2023-08-21T07:54:32;2.38;;;2.17;;
12776;SDS011;6452;41.572;23.732;2023-08-21T07:56:58;3.80;;;2.30;;
12776;SDS011;6452;41.572;23.732;2023-08-21T07:59:24;2.67;;;2.50;;
12776;SDS011;6452;41.572;23.732;2023-08-21T08:01:50;2.45;;;2.35;;
12776;SDS011;6452;41.572;23.732;2023-08-21T08:04:16;2.83;;;2.50;;
12776;SDS011;6452;41.572;23.732;2023-08-21T08:06:42;2.58;;;2.42;;
12776;SDS011;6452;41.572;23.732;2023-08-21T08:09:08;2.88;;;2.63;;
12776;SDS011;6452;41.572;23.732;2023-08-21T08:11:34;3.38;;;2.70;;
12776;SDS011;6452;41.572;23.732;2023-08-21T08:14:01;2.45;;;2.35;;
12776;SDS011;6452;41.572;23.732;2023-08-21T08:16:27;2.47;;;2.28;;
12776;SDS011;6452;41.572;23.732;2023-08-21T08:18:53;2.40;;;2.30;;
12776;SDS011;6452;41.572;23.732;2023-08-21T08:21:19;4.70;;;2.30;;
12776;SDS011;6452;41.572;23.732;2023-08-21T08:23:49;2.40;;;2.28;;
12776;SDS011;6452;41.572;23.732;2023-08-21T08:26:16;2.85;;;2.65;;
12776;SDS011;6452;41.572;23.732;2023-08-21T08:28:42;2.40;;;2.20;;
12776;SDS011;6452;41.572;23.732;2023-08-21T08:31:18;2.50;;;2.30;;
12776;SDS011;6452;41.572;23.732;2023-08-21T08:33:44;2.65;;;2.35;;
12776;SDS011;6452;41.572;23.732;2023-08-21T08:36:10;2.67;;;2.40;;
12776;SDS011;6452;41.572;23.732;2023-08-21T08:38:36;3.33;;;2.30;;
12776;SDS011;6452;41.572;23.732;2023-08-21T08:41:05;2.80;;;2.42;;
12776;SDS011;6452;41.572;23.732;2023-08-21T08:43:33;3.00;;;2.20;;
12776;SDS011;6452;41.572;23.732;2023-08-21T08:46:00;2.60;;;2.47;;
12776;SDS011;6452;41.572;23.732;2023-08-21T08:48:27;2.47;;;2.20;;
12776;SDS011;6452;41.572;23.732;2023-08-21T08:50:53;2.05;;;1.95;;
12776;SDS011;6452;41.572;23.732;2023-08-21T08:53:19;2.10;;;2.00;;
12776;SDS011;6452;41.572;23.732;2023-08-21T08:55:46;2.17;;;2.15;;
12776;SDS011;6452;41.572;23.732;2023-08-21T08:58:11;2.90;;;2.60;;
12776;SDS011;6452;41.572;23.732;2023-08-21T09:00:37;2.53;;;2.17;;
12776;SDS011;6452;41.572;23.732;2023-08-21T09:03:03;2.58;;;2.05;;
12776;SDS011;6452;41.572;23.732;2023-08-21T09:05:30;2.80;;;2.33;;
12776;SDS011;6452;41.572;23.732;2023-08-21T09:08:01;2.20;;;2.10;;
12776;SDS011;6452;41.572;23.732;2023-08-21T09:10:27;3.10;;;2.30;;
12776;SDS011;6452;41.572;23.732;2023-08-21T09:12:54;3.60;;;2.15;;
12776;SDS011;6452;41.572;23.732;2023-08-21T09:15:27;2.38;;;2.17;;
12776;SDS011;6452;41.572;23.732;2023-08-21T09:17:53;2.47;;;2.35;;
12776;SDS011;6452;41.572;23.732;2023-08-21T09:20:20;2.63;;;2.42;;
12776;SDS011;6452;41.572;23.732;2023-08-21T09:22:53;1.90;;;1.90;;
12776;SDS011;6452;41.572;23.732;2023-08-21T09:25:20;4.43;;;2.42;;
12776;SDS011;6452;41.572;23.732;2023-08-21T09:27:46;2.95;;;2.70;;
12776;SDS011;6452;41.572;23.732;2023-08-21T09:30:17;2.50;;;2.40;;
12776;SDS011;6452;41.572;23.732;2023-08-21T09:32:53;2.50;;;2.30;;
12776;SDS011;6452;41.572;23.732;2023-08-21T09:35:22;2.28;;;2.17;;
12776;SDS011;6452;41.572;23.732;2023-08-21T09:37:48;4.55;;;2.13;;
12776;SDS011;6452;41.572;23.732;2023-08-21T09:40:17;2.35;;;2.10;;
12776;SDS011;6452;41.572;23.732;2023-08-21T09:42:43;2.28;;;2.10;;
12776;SDS011;6452;41.572;23.732;2023-08-21T09:45:10;1.98;;;1.95;;
12776;SDS011;6452;41.572;23.732;2023-08-21T09:47:36;1.88;;;1.85;;
12776;SDS011;6452;41.572;23.732;2023-08-21T09:50:05;2.13;;;2.03;;
12776;SDS011;6452;41.572;23.732;2023-08-21T09:52:30;2.08;;;2.00;;
12776;SDS011;6452;41.572;23.732;2023-08-21T09:55:01;2.08;;;1.98;;
12776;SDS011;6452;41.572;23.732;2023-08-21T09:57:28;2.03;;;1.92;;
12776;SDS011;6452;41.572;23.732;2023-08-21T09:59:55;1.88;;;1.77;;
12776;SDS011;6452;41.572;23.732;2023-08-21T10:02:22;2.35;;;2.00;;
12776;SDS011;6452;41.572;23.732;2023-08-21T10:04:48;2.30;;;2.20;;
12776;SDS011;6452;41.572;23.732;2023-08-21T10:07:21;1.90;;;1.80;;
12776;SDS011;6452;41.572;23.732;2023-08-21T10:09:51;1.67;;;1.58;;
12776;SDS011;6452;41.572;23.732;2023-08-21T10:12:16;2.10;;;2.00;;
12776;SDS011;6452;41.572;23.732;2023-08-21T10:14:43;2.10;;;1.98;;
12776;SDS011;6452;41.572;23.732;2023-08-21T10:17:08;4.75;;;2.00;;
12776;SDS011;6452;41.572;23.732;2023-08-21T10:19:35;2.03;;;1.92;;
12776;SDS011;6452;41.572;23.732;2023-08-21T10:22:01;2.10;;;1.90;;
12776;SDS011;6452;41.572;23.732;2023-08-21T10:24:35;1.60;;;1.60;;
12776;SDS011;6452;41.572;23.732;2023-08-21T10:27:02;2.47;;;2.28;;
12776;SDS011;6452;41.572;23.732;2023-08-21T10:29:28;2.60;;;2.30;;
12776;SDS011;6452;41.572;23.732;2023-08-21T10:32:00;2.00;;;1.90;;
12776;SDS011;6452;41.572;23.732;2023-08-21T10:34:35;3.42;;;2.17;;
12776;SDS011;6452;41.572;23.732;2023-08-21T10:37:03;4.28;;;2.30;;
12776;SDS011;6452;41.572;23.732;2023-08-21T10:39:31;1.90;;;1.80;;
12776;SDS011;6452;41.572;23.732;2023-08-21T10:42:02;2.00;;;2.00;;
12776;SDS011;6452;41.572;23.732;2023-08-21T10:47:14;1.95;;;1.85;;
12776;SDS011;6452;41.572;23.732;2023-08-21T10:49:40;4.53;;;1.75;;
12776;SDS011;6452;41.572;23.732;2023-08-21T10:52:07;1.98;;;1.90;;
12776;SDS011;6452;41.572;23.732;2023-08-21T10:54:50;2.10;;;2.00;;
12776;SDS011;6452;41.572;23.732;2023-08-21T10:57:16;2.50;;;2.30;;
12776;SDS011;6452;41.572;23.732;2023-08-21T11:02:38;1.88;;;1.88;;
12776;SDS011;6452;41.572;23.732;2023-08-21T11:05:04;2.72;;;2.47;;
12776;SDS011;6452;41.572;23.732;2023-08-21T11:07:39;2.22;;;2.00;;
12776;SDS011;6452;41.572;23.732;2023-08-21T11:10:12;2.40;;;2.30;;
12776;SDS011;6452;41.572;23.732;2023-08-21T11:12:47;1.70;;;1.70;;
12776;SDS011;6452;41.572;23.732;2023-08-21T11:15:15;2.30;;;2.10;;
12776;SDS011;6452;41.572;23.732;2023-08-21T11:17:41;2.53;;;2.40;;
12776;SDS011;6452;41.572;23.732;2023-08-21T11:20:07;2.20;;;2.05;;
12776;SDS011;6452;41.572;23.732;2023-08-21T11:22:35;2.47;;;2.28;;
12776;SDS011;6452;41.572;23.732;2023-08-21T11:25:01;2.28;;;2.17;;
12776;SDS011;6452;41.572;23.732;2023-08-21T11:27:27;2.13;;;1.92;;
12776;SDS011;6452;41.572;23.732;2023-08-21T11:29:53;2.15;;;1.98;;
12776;SDS011;6452;41.572;23.732;2023-08-21T11:32:20;2.20;;;2.10;;
12776;SDS011;6452;41.572;23.732;2023-08-21T11:34:48;2.25;;;2.15;;
12776;SDS011;6452;41.572;23.732;2023-08-21T11:37:15;2.25;;;2.15;;
12776;SDS011;6452;41.572;23.732;2023-08-21T11:39:42;2.53;;;2.22;;
12776;SDS011;6452;41.572;23.732;2023-08-21T11:42:09;2.72;;;2.20;;
12776;SDS011;6452;41.572;23.732;2023-08-21T11:44:55;2.50;;;2.30;;
12776;SDS011;6452;41.572;23.732;2023-08-21T11:47:22;2.30;;;2.20;;
12776;SDS011;6452;41.572;23.732;2023-08-21T11:49:49;2.78;;;2.20;;
12776;SDS011;6452;41.572;23.732;2023-08-21T11:52:22;2.63;;;2.30;;
12776;SDS011;6452;41.572;23.732;2023-08-21T11:54:48;2.38;;;2.17;;
12776;SDS011;6452;41.572;23.732;2023-08-21T11:57:14;2.00;;;1.98;;
12776;SDS011;6452;41.572;23.732;2023-08-21T11:59:41;2.20;;;2.10;;
12776;SDS011;6452;41.572;23.732;2023-08-21T12:02:08;2.00;;;1.90;;
12776;SDS011;6452;41.572;23.732;2023-08-21T12:04:34;2.25;;;2.05;;
12776;SDS011;6452;41.572;23.732;2023-08-21T12:07:01;2.40;;;2.30;;
12776;SDS011;6452;41.572;23.732;2023-08-21T12:09:27;2.58;;;2.38;;
12776;SDS011;6452;41.572;23.732;2023-08-21T12:11:53;2.33;;;2.22;;
12776;SDS011;6452;41.572;23.732;2023-08-21T12:14:20;3.03;;;1.92;;
12776;SDS011;6452;41.572;23.732;2023-08-21T12:16:46;2.22;;;2.13;;
12776;SDS011;6452;41.572;23.732;2023-08-21T12:19:12;2.20;;;2.10;;
12776;SDS011;6452;41.572;23.732;2023-08-21T12:21:39;3.47;;;2.42;;
12776;SDS011;6452;41.572;23.732;2023-08-21T12:24:06;3.35;;;2.30;;
12776;SDS011;6452;41.572;23.732;2023-08-21T12:26:32;2.45;;;2.35;;
12776;SDS011;6452;41.572;23.732;2023-08-21T12:28:59;3.70;;;2.40;;
12776;SDS011;6452;41.572;23.732;2023-08-21T12:31:26;2.53;;;2.33;;
12776;SDS011;6452;41.572;23.732;2023-08-21T12:33:52;3.38;;;2.50;;
12776;SDS011;6452;41.572;23.732;2023-08-21T12:36:18;3.15;;;2.88;;
12776;SDS011;6452;41.572;23.732;2023-08-21T12:38:44;2.60;;;2.40;;
12776;SDS011;6452;41.572;23.732;2023-08-21T12:41:10;4.03;;;2.72;;
12776;SDS011;6452;41.572;23.732;2023-08-21T12:43:37;2.60;;;2.40;;
12776;SDS011;6452;41.572;23.732;2023-08-21T12:46:03;2.97;;;2.58;;
12776;SDS011;6452;41.572;23.732;2023-08-21T12:48:29;4.00;;;2.58;;
12776;SDS011;6452;41.572;23.732;2023-08-21T12:50:55;2.88;;;2.42;;
12776;SDS011;6452;41.572;23.732;2023-08-21T12:53:21;2.60;;;2.50;;
12776;SDS011;6452;41.572;23.732;2023-08-21T12:55:47;3.08;;;2.97;;
12776;SDS011;6452;41.572;23.732;2023-08-21T12:58:14;2.60;;;2.50;;
12776;SDS011;6452;41.572;23.732;2023-08-21T13:00:40;2.80;;;2.53;;
12776;SDS011;6452;41.572;23.732;2023-08-21T13:03:06;2.83;;;2.45;;
12776;SDS011;6452;41.572;23.732;2023-08-21T13:05:33;4.15;;;2.70;;
12776;SDS011;6452;41.572;23.732;2023-08-21T13:08:00;2.47;;;2.38;;
12776;SDS011;6452;41.572;23.732;2023-08-21T13:10:26;2.90;;;2.40;;
12776;SDS011;6452;41.572;23.732;2023-08-21T13:12:52;2.60;;;2.25;;
12776;SDS011;6452;41.572;23.732;2023-08-21T13:15:18;2.63;;;2.42;;
12776;SDS011;6452;41.572;23.732;2023-08-21T13:17:44;6.10;;;2.85;;
12776;SDS011;6452;41.572;23.732;2023-08-21T13:20:11;2.60;;;2.20;;
12776;SDS011;6452;41.572;23.732;2023-08-21T13:22:50;2.80;;;2.60;;
12776;SDS011;6452;41.572;23.732;2023-08-21T13:25:20;5.55;;;2.65;;
12776;SDS011;6452;41.572;23.732;2023-08-21T13:27:46;3.47;;;2.50;;
12776;SDS011;6452;41.572;23.732;2023-08-21T13:30:13;3.47;;;2.70;;
12776;SDS011;6452;41.572;23.732;2023-08-21T13:32:38;2.75;;;2.33;;
12776;SDS011;6452;41.572;23.732;2023-08-21T13:35:05;2.50;;;2.40;;
12776;SDS011;6452;41.572;23.732;2023-08-21T13:37:34;2.55;;;2.45;;
12776;SDS011;6452;41.572;23.732;2023-08-21T13:40:01;2.70;;;2.60;;
12776;SDS011;6452;41.572;23.732;2023-08-21T13:42:34;2.60;;;2.50;;
12776;SDS011;6452;41.572;23.732;2023-08-21T13:45:02;3.08;;;2.72;;
12776;SDS011;6452;41.572;23.732;2023-08-21T13:47:29;2.97;;;2.63;;
12776;SDS011;6452;41.572;23.732;2023-08-21T13:49:55;2.65;;;2.40;;
12776;SDS011;6452;41.572;23.732;2023-08-21T13:52:21;3.40;;;3.00;;
12776;SDS011;6452;41.572;23.732;2023-08-21T13:54:47;4.45;;;2.92;;
12776;SDS011;6452;41.572;23.732;2023-08-21T13:57:13;3.03;;;2.83;;
12776;SDS011;6452;41.572;23.732;2023-08-21T13:59:39;4.63;;;2.95;;
12776;SDS011;6452;41.572;23.732;2023-08-21T14:02:06;5.03;;;3.13;;
12776;SDS011;6452;41.572;23.732;2023-08-21T14:04:32;2.90;;;2.70;;
12776;SDS011;6452;41.572;23.732;2023-08-21T14:06:58;4.82;;;2.92;;
12776;SDS011;6452;41.572;23.732;2023-08-21T14:09:25;3.45;;;2.78;;
12776;SDS011;6452;41.572;23.732;2023-08-21T14:11:51;3.35;;;2.90;;
12776;SDS011;6452;41.572;23.732;2023-08-21T14:14:17;3.03;;;2.83;;
12776;SDS011;6452;41.572;23.732;2023-08-21T14:16:44;3.58;;;3.28;;
12776;SDS011;6452;41.572;23.732;2023-08-21T14:19:09;4.00;;;2.95;;
12776;SDS011;6452;41.572;23.732;2023-08-21T14:21:35;3.25;;;2.90;;
12776;SDS011;6452;41.572;23.732;2023-08-21T14:24:02;2.80;;;2.70;;
12776;SDS011;6452;41.572;23.732;2023-08-21T14:26:28;3.30;;;2.90;;
12776;SDS011;6452;41.572;23.732;2023-08-21T14:28:54;2.92;;;2.67;;
12776;SDS011;6452;41.572;23.732;2023-08-21T14:31:20;2.72;;;2.63;;
12776;SDS011;6452;41.572;23.732;2023-08-21T14:33:46;3.15;;;2.95;;
12776;SDS011;6452;41.572;23.732;2023-08-21T14:36:12;2.97;;;2.75;;
12776;SDS011;6452;41.572;23.732;2023-08-21T14:38:38;2.92;;;2.80;;
12776;SDS011;6452;41.572;23.732;2023-08-21T14:41:04;2.67;;;2.58;;
12776;SDS011;6452;41.572;23.732;2023-08-21T14:43:30;3.33;;;3.17;;
12776;SDS011;6452;41.572;23.732;2023-08-21T14:45:58;3.03;;;2.70;;
12776;SDS011;6452;41.572;23.732;2023-08-21T14:48:23;3.03;;;2.80;;
12776;SDS011;6452;41.572;23.732;2023-08-21T14:50:50;3.30;;;3.00;;
12776;SDS011;6452;41.572;23.732;2023-08-21T14:53:15;3.10;;;2.90;;
12776;SDS011;6452;41.572;23.732;2023-08-21T14:55:41;3.00;;;2.80;;
12776;SDS011;6452;41.572;23.732;2023-08-21T14:58:07;2.78;;;2.60;;